createdAt,value
2019-06-20T00:01:44.254Z,23.51
2019-06-20T00:04:15.394Z,23.65
2019-06-20T00:06:46.421Z,23.68
2019-06-20T00:09:17.489Z,23.66
2019-06-20T00:11:48.683Z,23.21
2019-06-20T00:14:19.704Z,23.52
2019-06-20T00:16:50.743Z,23.28
2019-06-20T00:19:21.839Z,23.41
2019-06-20T00:21:52.919Z,23.16
2019-06-20T00:24:24.050Z,23.12
2019-06-20T00:26:55.158Z,23.11
2019-06-20T00:29:26.279Z,22.81
2019-06-20T00:31:57.366Z,23.03
2019-06-20T00:34:28.411Z,23.03
2019-06-20T00:36:59.529Z,22.40
2019-06-20T00:39:30.783Z,22.78
2019-06-20T00:42:01.907Z,22.30
2019-06-20T00:44:33.022Z,22.72
2019-06-20T00:47:04.028Z,22.52
2019-06-20T00:49:35.088Z,22.56
2019-06-20T00:52:06.188Z,22.70
2019-06-20T00:54:37.225Z,22.34
2019-06-20T00:57:08.277Z,22.42
2019-06-20T00:59:39.413Z,22.38
2019-06-20T01:02:10.478Z,22.71
2019-06-20T01:04:41.496Z,22.59
2019-06-20T01:07:12.560Z,22.73
2019-06-20T01:09:43.569Z,22.42
2019-06-20T01:12:14.602Z,22.30
2019-06-20T01:14:45.650Z,22.43
2019-06-20T01:17:16.764Z,22.59
2019-06-20T01:19:47.885Z,22.54
2019-06-20T01:22:19.574Z,22.68
2019-06-20T01:24:50.600Z,22.58
2019-06-20T01:27:21.705Z,22.80
2019-06-20T01:29:52.745Z,23.02
2019-06-20T01:32:23.846Z,22.80
2019-06-20T01:34:54.944Z,22.59
2019-06-20T01:37:25.980Z,22.67
2019-06-20T01:39:58.264Z,22.65
2019-06-20T01:42:29.374Z,22.49
2019-06-20T01:45:00.431Z,22.52
2019-06-20T01:47:31.448Z,22.61
2019-06-20T01:50:02.551Z,22.59
2019-06-20T01:52:33.668Z,22.36
2019-06-20T01:55:05.202Z,22.52
2019-06-20T01:57:36.248Z,22.66
2019-06-20T02:00:09.400Z,22.90
2019-06-20T02:02:40.764Z,22.93
2019-06-20T02:05:12.370Z,22.90
2019-06-20T02:07:43.477Z,22.65
2019-06-20T02:10:14.735Z,22.80
2019-06-20T02:12:45.745Z,22.73
2019-06-20T02:15:17.965Z,23.00
2019-06-20T02:17:49.003Z,22.76
2019-06-20T02:20:33.968Z,22.41
2019-06-20T02:23:06.141Z,22.26
2019-06-20T02:25:37.365Z,21.73
2019-06-20T02:28:08.459Z,21.67
2019-06-20T02:30:39.629Z,21.88
2019-06-20T02:33:10.765Z,22.01
2019-06-20T02:35:41.969Z,22.21
2019-06-20T02:38:13.088Z,22.36
2019-06-20T02:40:44.928Z,22.33
2019-06-20T02:43:16.057Z,22.36
2019-06-20T02:45:47.159Z,22.48
2019-06-20T02:48:18.287Z,22.40
2019-06-20T02:50:49.567Z,22.32
2019-06-20T02:53:20.565Z,22.20
2019-06-20T02:55:51.693Z,22.27
2019-06-20T02:58:22.835Z,22.09
2019-06-20T03:00:57.601Z,21.87
2019-06-20T03:03:30.121Z,22.31
2019-06-20T03:06:01.246Z,21.97
2019-06-20T03:08:32.374Z,22.20
2019-06-20T03:11:03.400Z,21.75
2019-06-20T03:13:34.411Z,21.51
2019-06-20T03:16:05.674Z,21.49
2019-06-20T03:18:36.783Z,21.39
2019-06-20T03:21:07.946Z,21.38
2019-06-20T03:23:38.970Z,21.33
2019-06-20T03:26:10.015Z,21.41
2019-06-20T03:28:41.109Z,21.67
2019-06-20T03:31:12.226Z,21.68
2019-06-20T03:33:43.339Z,21.87
2019-06-20T03:36:14.793Z,21.97
2019-06-20T03:38:45.869Z,22.18
2019-06-20T03:41:16.941Z,21.89
2019-06-20T03:43:48.014Z,21.85
2019-06-20T03:46:19.123Z,21.96
2019-06-20T03:48:50.174Z,21.99
2019-06-20T03:51:21.209Z,21.84
2019-06-20T03:53:52.215Z,22.00
2019-06-20T03:56:23.256Z,21.67
2019-06-20T03:58:54.322Z,21.85
2019-06-20T04:01:25.390Z,22.08
2019-06-20T04:03:56.415Z,21.88
2019-06-20T04:06:27.572Z,21.95
2019-06-20T04:08:58.655Z,22.34
2019-06-20T04:11:29.716Z,22.07
2019-06-20T04:14:00.753Z,22.22
2019-06-20T04:16:31.884Z,22.39
2019-06-20T04:19:02.909Z,22.00
2019-06-20T04:21:33.947Z,21.96
2019-06-20T04:24:05.157Z,21.78
2019-06-20T04:26:36.279Z,21.81
2019-06-20T04:29:07.636Z,21.65
2019-06-20T04:31:38.677Z,21.88
2019-06-20T04:34:09.735Z,22.31
2019-06-20T04:36:40.812Z,21.83
2019-06-20T04:39:19.108Z,22.46
2019-06-20T04:41:44.712Z,22.27
2019-06-20T04:44:15.756Z,22.36
2019-06-20T04:46:56.668Z,22.15
2019-06-20T04:49:27.742Z,22.12
2019-06-20T04:51:58.800Z,22.15
2019-06-20T04:54:29.878Z,22.31
2019-06-20T04:57:00.967Z,22.02
2019-06-20T04:59:31.997Z,22.08
2019-06-20T05:02:03.192Z,21.91
2019-06-20T05:04:34.207Z,21.75
2019-06-20T05:07:16.729Z,21.73
2019-06-20T05:09:47.925Z,21.82
2019-06-20T05:12:18.969Z,21.93
2019-06-20T05:14:50.088Z,21.77
2019-06-20T05:17:21.175Z,21.94
2019-06-20T05:19:52.186Z,21.69
2019-06-20T05:22:23.309Z,21.79
2019-06-20T05:24:54.378Z,21.88
2019-06-20T05:27:25.573Z,21.76
2019-06-20T05:29:56.645Z,21.80
2019-06-20T05:32:27.692Z,21.62
2019-06-20T05:35:02.655Z,22.08
2019-06-20T05:37:31.503Z,21.98
2019-06-20T05:40:02.594Z,22.20
2019-06-20T05:42:33.822Z,22.07
2019-06-20T05:45:05.466Z,22.18
2019-06-20T05:47:37.502Z,21.99
2019-06-20T05:50:08.871Z,22.45
2019-06-20T05:52:39.957Z,22.77
2019-06-20T05:55:11.412Z,22.53
2019-06-20T05:57:42.456Z,22.73
2019-06-20T06:00:14.303Z,22.67
2019-06-20T06:02:45.420Z,22.61
2019-06-20T06:05:16.819Z,22.75
2019-06-20T06:07:47.874Z,22.63
2019-06-20T06:10:19.360Z,22.23
2019-06-20T06:12:50.480Z,22.80
2019-06-20T06:15:21.990Z,22.69
2019-06-20T06:17:53.049Z,22.73
2019-06-20T06:20:24.239Z,22.51
2019-06-20T06:22:55.292Z,22.66
2019-06-20T06:25:26.450Z,22.62
2019-06-20T06:27:57.520Z,22.77
2019-06-20T06:30:28.883Z,22.44
2019-06-20T06:33:00.078Z,22.70
2019-06-20T06:35:31.266Z,22.63
2019-06-20T06:38:02.293Z,22.79
2019-06-20T06:40:33.692Z,22.56
2019-06-20T06:43:05.248Z,22.64
2019-06-20T06:45:36.429Z,22.56
2019-06-20T06:48:07.612Z,22.74
2019-06-20T06:50:38.819Z,23.17
2019-06-20T06:53:09.881Z,22.97
2019-06-20T06:55:41.112Z,23.33
2019-06-20T06:58:12.156Z,23.43
2019-06-20T07:00:43.190Z,23.49
2019-06-20T07:03:14.240Z,23.12
2019-06-20T07:05:45.496Z,22.43
2019-06-20T07:08:16.865Z,22.48
2019-06-20T07:10:48.015Z,22.98
2019-06-20T07:13:19.062Z,23.20
2019-06-20T07:15:50.109Z,23.37
2019-06-20T07:18:21.202Z,23.82
2019-06-20T07:20:52.232Z,23.85
2019-06-20T07:23:23.320Z,23.56
2019-06-20T07:25:54.419Z,23.60
2019-06-20T07:28:25.482Z,23.55
2019-06-20T07:30:56.511Z,23.79
2019-06-20T07:33:27.586Z,23.79
2019-06-20T07:35:58.928Z,23.64
2019-06-20T07:38:29.940Z,23.54
2019-06-20T07:41:00.969Z,23.82
2019-06-20T07:43:32.030Z,24.15
2019-06-20T07:46:03.352Z,24.08
2019-06-20T07:48:34.700Z,24.01
2019-06-20T07:51:05.905Z,23.75
2019-06-20T07:53:37.058Z,23.85
2019-06-20T07:56:09.469Z,24.31
2019-06-20T07:58:41.858Z,23.81
2019-06-20T08:01:13.027Z,23.96
2019-06-20T08:03:45.286Z,24.13
2019-06-20T08:06:16.358Z,23.98
2019-06-20T08:08:47.457Z,24.30
2019-06-20T08:11:18.685Z,24.27
2019-06-20T08:13:49.742Z,24.60
2019-06-20T08:16:20.832Z,24.37
2019-06-20T08:18:52.211Z,24.51
2019-06-20T08:21:23.200Z,24.22
2019-06-20T08:23:54.260Z,24.23
2019-06-20T08:26:26.452Z,23.89
2019-06-20T08:29:10.166Z,24.13
2019-06-20T08:31:30.259Z,23.95
2019-06-20T08:34:02.262Z,23.60
2019-06-20T08:36:33.313Z,23.57
2019-06-20T08:39:06.561Z,23.67
2019-06-20T08:41:37.644Z,23.70
2019-06-20T08:44:09.231Z,23.81
2019-06-20T08:46:40.570Z,23.81
2019-06-20T08:49:11.624Z,23.73
2019-06-20T08:51:42.672Z,23.58
2019-06-20T08:54:13.795Z,24.00
2019-06-20T08:56:45.904Z,23.91
2019-06-20T08:59:24.316Z,24.07
2019-06-20T09:01:49.778Z,24.01
2019-06-20T09:04:22.543Z,24.19
2019-06-20T09:06:55.715Z,24.13
2019-06-20T09:09:26.608Z,24.01
2019-06-20T09:11:58.568Z,23.87
2019-06-20T09:14:29.843Z,24.21
2019-06-20T09:17:00.962Z,24.15
2019-06-20T09:19:32.044Z,24.57
2019-06-20T09:22:04.747Z,24.62
2019-06-20T09:24:36.029Z,24.88
2019-06-20T09:27:07.054Z,25.07
2019-06-20T09:29:41.785Z,25.07
2019-06-20T09:32:10.956Z,24.75
2019-06-20T09:34:42.763Z,24.98
2019-06-20T09:37:13.807Z,24.79
2019-06-20T09:39:45.031Z,24.70
2019-06-20T09:42:16.072Z,25.20
2019-06-20T09:44:47.137Z,25.52
2019-06-20T09:47:18.250Z,25.38
2019-06-20T09:49:52.382Z,25.39
2019-06-20T09:52:22.199Z,25.34
2019-06-20T09:54:53.941Z,25.57
2019-06-20T09:57:25.143Z,25.47
2019-06-20T10:00:07.598Z,25.14
2019-06-20T10:02:29.136Z,24.74
2019-06-20T10:05:00.442Z,24.75
2019-06-20T10:07:31.623Z,25.01
2019-06-20T10:10:03.133Z,24.69
2019-06-20T10:12:34.253Z,24.45
2019-06-20T10:15:06.407Z,24.44
2019-06-20T10:17:37.434Z,24.49
2019-06-20T10:20:08.895Z,24.40
2019-06-20T10:22:40.071Z,24.49
2019-06-20T10:25:11.284Z,24.56
2019-06-20T10:27:42.562Z,24.64
2019-06-20T10:30:15.004Z,24.36
2019-06-20T10:32:46.770Z,24.19
2019-06-20T10:35:18.640Z,24.02
2019-06-20T10:37:50.336Z,23.95
2019-06-20T10:40:24.441Z,23.74
2019-06-20T10:42:56.954Z,23.49
2019-06-20T10:45:29.514Z,23.36
2019-06-20T10:48:00.702Z,23.39
2019-06-20T10:50:32.026Z,23.35
2019-06-20T10:53:03.207Z,23.25
2019-06-20T10:55:34.393Z,23.31
2019-06-20T10:58:05.840Z,23.24
2019-06-20T11:00:36.883Z,23.31
2019-06-20T11:03:08.073Z,23.54
2019-06-20T11:05:40.486Z,23.62
2019-06-20T11:08:12.107Z,23.73
2019-06-20T11:10:43.861Z,24.24
2019-06-20T11:13:16.185Z,24.49
2019-06-20T11:15:48.267Z,24.47
2019-06-20T11:18:19.669Z,24.59
2019-06-20T11:20:50.723Z,24.38
2019-06-20T11:23:22.797Z,24.82
2019-06-20T11:25:53.917Z,25.05
2019-06-20T11:28:25.006Z,24.85
2019-06-20T11:31:00.515Z,25.30
2019-06-20T11:33:29.009Z,25.03
2019-06-20T11:36:00.236Z,24.99
2019-06-20T11:38:31.317Z,25.36
2019-06-20T11:41:02.543Z,25.20
2019-06-20T11:43:34.754Z,25.16
2019-06-20T11:46:06.655Z,25.28
2019-06-20T11:48:38.479Z,25.81
2019-06-20T11:51:10.108Z,25.63
2019-06-20T11:53:42.603Z,25.28
2019-06-20T11:56:13.827Z,25.63
2019-06-20T11:58:44.846Z,25.48
2019-06-20T12:01:17.147Z,25.31
2019-06-20T12:03:48.985Z,25.23
2019-06-20T12:06:20.221Z,24.99
2019-06-20T12:08:51.288Z,25.33
2019-06-20T12:11:22.343Z,25.92
2019-06-20T12:13:53.371Z,25.72
2019-06-20T12:16:24.505Z,25.54
2019-06-20T12:18:55.529Z,25.29
2019-06-20T12:21:26.586Z,25.93
2019-06-20T12:23:57.619Z,25.86
2019-06-20T12:26:28.656Z,25.56
2019-06-20T12:28:59.714Z,25.46
2019-06-20T12:31:30.973Z,25.15
2019-06-20T12:34:01.995Z,25.23
2019-06-20T12:36:33.078Z,25.27
2019-06-20T12:39:04.683Z,25.06
2019-06-20T12:41:37.211Z,25.34
2019-06-20T12:44:08.386Z,25.03
2019-06-20T12:46:40.913Z,24.99
2019-06-20T12:49:13.116Z,24.88
2019-06-20T12:51:44.797Z,25.24
2019-06-20T12:54:15.885Z,25.19
2019-06-20T12:56:48.201Z,25.07
2019-06-20T12:59:20.507Z,25.06
2019-06-20T13:01:51.603Z,24.90
2019-06-20T13:04:22.624Z,24.88
2019-06-20T13:06:53.764Z,24.71
2019-06-20T13:09:24.873Z,24.70
2019-06-20T13:11:56.022Z,24.64
2019-06-20T13:14:27.141Z,24.74
2019-06-20T13:16:58.309Z,24.79
2019-06-20T13:19:29.337Z,24.53
2019-06-20T13:22:00.495Z,24.58
2019-06-20T13:24:31.513Z,24.39
2019-06-20T13:27:02.561Z,24.42
2019-06-20T13:29:33.723Z,24.26
2019-06-20T13:32:04.885Z,24.37
2019-06-20T13:34:35.939Z,24.13
2019-06-20T13:37:07.079Z,24.02
2019-06-20T13:39:38.521Z,24.01
2019-06-20T13:42:11.180Z,23.87
2019-06-20T13:44:42.675Z,24.09
2019-06-20T13:47:14.980Z,24.22
2019-06-20T13:49:46.147Z,24.31
2019-06-20T13:52:18.130Z,24.27
2019-06-20T13:54:49.892Z,24.19
2019-06-20T13:57:21.087Z,24.52
2019-06-20T13:59:52.906Z,24.53
2019-06-20T14:02:24.937Z,24.55
2019-06-20T14:04:56.039Z,24.53
2019-06-20T14:07:27.149Z,24.61
2019-06-20T14:09:58.187Z,24.39
2019-06-20T14:12:29.253Z,23.45
2019-06-20T14:15:00.380Z,22.04
2019-06-20T14:17:31.424Z,20.55
2019-06-20T14:20:02.525Z,20.82
2019-06-20T14:22:33.636Z,20.92
2019-06-20T14:25:05.253Z,20.68
2019-06-20T14:27:36.505Z,20.72
2019-06-20T14:30:08.827Z,20.35
2019-06-20T14:32:59.191Z,20.69
2019-06-20T14:35:30.384Z,20.78
2019-06-20T14:38:01.690Z,20.57
2019-06-20T14:40:32.801Z,20.17
2019-06-20T14:43:03.971Z,20.36
2019-06-20T14:45:38.010Z,20.49
2019-06-20T14:48:08.009Z,20.44
2019-06-20T14:50:39.252Z,20.56
2019-06-20T14:53:10.433Z,20.60
2019-06-20T14:55:41.555Z,20.70
2019-06-20T14:58:12.723Z,20.52
2019-06-20T15:00:45.322Z,20.81
2019-06-20T15:03:16.791Z,20.63
2019-06-20T15:05:48.323Z,20.82
2019-06-20T15:08:19.551Z,20.75
2019-06-20T15:10:51.782Z,20.79
2019-06-20T15:13:23.119Z,20.91
2019-06-20T15:15:55.380Z,20.93
2019-06-20T15:18:26.704Z,20.82
2019-06-20T15:20:59.417Z,21.36
2019-06-20T15:23:30.708Z,21.13
2019-06-20T15:26:01.751Z,21.20
2019-06-20T15:28:32.800Z,21.39
2019-06-20T15:31:03.813Z,20.84
2019-06-20T15:33:34.912Z,20.87
2019-06-20T15:36:06.300Z,20.26
2019-06-20T15:38:37.368Z,20.37
2019-06-20T15:41:08.397Z,20.59
2019-06-20T15:43:39.689Z,21.11
2019-06-20T15:46:10.724Z,20.92
2019-06-20T15:48:41.842Z,21.09
2019-06-20T15:51:13.035Z,20.94
2019-06-20T15:53:44.175Z,20.87
2019-06-20T15:56:15.294Z,21.12
2019-06-20T15:58:46.364Z,21.33
2019-06-20T16:01:17.513Z,20.36
2019-06-20T16:03:48.599Z,20.82
2019-06-20T16:06:19.619Z,20.99
2019-06-20T16:08:50.665Z,21.08
2019-06-20T16:11:21.706Z,21.40
2019-06-20T16:13:52.882Z,21.51
2019-06-20T16:16:23.915Z,21.41
2019-06-20T16:18:54.951Z,21.20
2019-06-20T16:21:26.054Z,21.29
2019-06-20T16:23:57.138Z,21.45
2019-06-20T16:26:28.164Z,21.64
2019-06-20T16:28:59.207Z,21.79
2019-06-20T16:31:30.384Z,21.46
2019-06-20T16:34:01.493Z,21.40
2019-06-20T16:36:32.522Z,21.58
2019-06-20T16:39:04.702Z,21.45
2019-06-20T16:41:36.537Z,21.33
2019-06-20T16:44:07.839Z,21.60
2019-06-20T16:46:39.131Z,21.77
2019-06-20T16:49:10.307Z,21.59
2019-06-20T16:51:44.556Z,21.66
2019-06-20T16:54:15.577Z,21.72
2019-06-20T16:56:46.778Z,21.43
2019-06-20T16:59:17.793Z,21.44
2019-06-20T17:01:48.845Z,21.54
2019-06-20T17:04:19.885Z,21.35
2019-06-20T17:06:51.010Z,21.53
2019-06-20T17:09:22.171Z,21.35
2019-06-20T17:11:53.302Z,21.68
2019-06-20T17:14:24.369Z,21.64
2019-06-20T17:16:55.493Z,21.75
2019-06-20T17:19:26.592Z,21.48
2019-06-20T17:21:57.848Z,21.34
2019-06-20T17:24:28.918Z,21.17
2019-06-20T17:27:00.127Z,21.30
2019-06-20T17:29:31.305Z,21.39
2019-06-20T17:32:02.335Z,21.42
2019-06-20T17:34:33.454Z,21.60
2019-06-20T17:37:04.640Z,21.86
2019-06-20T17:39:35.760Z,21.62
2019-06-20T17:42:06.948Z,21.73
2019-06-20T17:44:37.965Z,21.46
2019-06-20T17:47:09.003Z,21.73
2019-06-20T17:49:40.116Z,21.60
2019-06-20T17:52:12.126Z,21.69
2019-06-20T17:54:43.147Z,21.74
2019-06-20T17:57:14.192Z,21.77
2019-06-20T17:59:45.304Z,21.62
2019-06-20T18:02:16.414Z,21.64
2019-06-20T18:04:47.448Z,21.39
2019-06-20T18:07:18.566Z,21.47
2019-06-20T18:09:52.693Z,21.47
2019-06-20T18:12:22.595Z,21.30
2019-06-20T18:14:53.632Z,21.41
2019-06-20T18:17:24.675Z,21.38
2019-06-20T18:19:55.699Z,21.42
2019-06-20T18:22:26.760Z,21.27
2019-06-20T18:24:57.871Z,21.44
2019-06-20T18:27:28.917Z,21.46
2019-06-20T18:30:00.010Z,21.02
2019-06-20T18:32:31.077Z,21.06
2019-06-20T18:35:02.777Z,21.12
2019-06-20T18:37:33.976Z,21.02
2019-06-20T18:40:05.828Z,21.13
2019-06-20T18:42:37.178Z,21.17
2019-06-20T18:45:08.957Z,21.10
2019-06-20T18:47:40.180Z,21.03
2019-06-20T18:50:12.189Z,20.96
2019-06-20T18:52:52.141Z,20.97
2019-06-20T18:55:17.447Z,20.74
2019-06-20T18:57:48.603Z,20.63
2019-06-20T19:00:33.600Z,20.65
2019-06-20T19:02:53.550Z,20.56
2019-06-20T19:05:24.739Z,20.69
2019-06-20T19:07:55.863Z,20.66
2019-06-20T19:10:28.037Z,20.59
2019-06-20T19:12:59.108Z,20.73
2019-06-20T19:15:30.419Z,20.77
2019-06-20T19:18:01.444Z,20.83
2019-06-20T19:20:32.542Z,20.66
2019-06-20T19:23:03.577Z,20.64
2019-06-20T19:25:36.083Z,20.44
2019-06-20T19:28:07.184Z,20.35
2019-06-20T19:30:50.554Z,20.26
2019-06-20T19:33:21.999Z,20.76
2019-06-20T19:35:54.251Z,20.22
2019-06-20T19:38:25.323Z,20.32
2019-06-20T19:40:56.491Z,20.44
2019-06-20T19:43:27.569Z,20.48
2019-06-20T19:45:58.745Z,20.79
2019-06-20T19:48:29.869Z,20.71
2019-06-20T19:51:01.194Z,20.68
2019-06-20T19:53:32.391Z,20.64
2019-06-20T19:56:03.560Z,20.95
2019-06-20T19:58:34.964Z,20.89
2019-06-20T20:01:06.016Z,20.64
2019-06-20T20:03:37.483Z,20.46
2019-06-20T20:06:08.651Z,20.47
2019-06-20T20:08:39.861Z,20.52
2019-06-20T20:11:11.035Z,20.91
2019-06-20T20:13:42.229Z,20.44
2019-06-20T20:16:13.375Z,20.51
2019-06-20T20:18:44.413Z,20.44
2019-06-20T20:21:15.507Z,20.65
2019-06-20T20:23:46.602Z,20.61
2019-06-20T20:26:17.628Z,20.62
2019-06-20T20:28:48.682Z,20.75
2019-06-20T20:31:19.718Z,20.49
2019-06-20T20:33:51.642Z,20.50
2019-06-20T20:36:25.213Z,20.40
2019-06-20T20:38:55.630Z,20.25
2019-06-20T20:41:26.650Z,20.45
2019-06-20T20:43:57.765Z,20.43
2019-06-20T20:46:28.825Z,20.49
2019-06-20T20:48:59.869Z,20.54
2019-06-20T20:51:30.910Z,20.37
2019-06-20T20:54:02.575Z,20.55
2019-06-20T20:56:33.820Z,20.28
2019-06-20T20:59:05.122Z,20.35
2019-06-20T21:01:36.187Z,20.51
2019-06-20T21:04:07.301Z,20.46
2019-06-20T21:06:38.325Z,20.22
2019-06-20T21:09:09.971Z,20.16
2019-06-20T21:11:42.066Z,19.91
2019-06-20T21:14:13.143Z,19.66
2019-06-20T21:16:44.173Z,19.78
2019-06-20T21:19:15.273Z,19.76
2019-06-20T21:21:46.295Z,19.58
2019-06-20T21:24:17.548Z,19.71
2019-06-20T21:26:50.058Z,19.70
2019-06-20T21:29:21.498Z,19.66
2019-06-20T21:31:52.507Z,20.10
2019-06-20T21:34:23.633Z,20.19
2019-06-20T21:36:54.680Z,20.22
2019-06-20T21:39:25.774Z,20.01
2019-06-20T21:41:56.853Z,19.70
2019-06-20T21:44:27.902Z,19.39
2019-06-20T21:46:58.976Z,19.23
2019-06-20T21:49:30.039Z,18.91
2019-06-20T21:52:01.128Z,18.81
2019-06-20T21:54:32.178Z,18.87
2019-06-20T21:57:03.256Z,18.64
2019-06-20T21:59:34.383Z,18.58
2019-06-20T22:02:05.875Z,18.63
2019-06-20T22:04:36.999Z,18.79
2019-06-20T22:07:08.386Z,19.00
2019-06-20T22:09:39.581Z,19.20
2019-06-20T22:12:11.786Z,19.09
2019-06-20T22:14:42.959Z,19.07
2019-06-20T22:17:14.089Z,18.70
2019-06-20T22:19:45.273Z,18.59
2019-06-20T22:22:16.273Z,18.45
2019-06-20T22:24:47.576Z,18.72
2019-06-20T22:27:18.641Z,19.01
2019-06-20T22:29:49.702Z,18.71
2019-06-20T22:32:20.798Z,18.78
2019-06-20T22:34:51.834Z,18.95
2019-06-20T22:37:22.854Z,19.22
2019-06-20T22:39:53.920Z,19.56
2019-06-20T22:42:25.025Z,19.27
2019-06-20T22:44:56.132Z,19.10
2019-06-20T22:47:27.273Z,18.77
2019-06-20T22:49:58.390Z,18.80
2019-06-20T22:52:29.776Z,18.84
2019-06-20T22:55:00.916Z,18.71
2019-06-20T22:57:31.949Z,19.21
2019-06-20T23:00:04.735Z,19.00
2019-06-20T23:02:35.946Z,19.16
2019-06-20T23:05:07.465Z,18.85
2019-06-20T23:07:39.719Z,18.67
2019-06-20T23:10:11.540Z,18.24
2019-06-20T23:12:43.818Z,18.46
2019-06-20T23:15:15.436Z,18.58
2019-06-20T23:17:46.464Z,18.56
2019-06-20T23:20:18.453Z,18.86
2019-06-20T23:22:49.487Z,18.74
2019-06-20T23:25:20.636Z,19.19
2019-06-20T23:27:51.697Z,19.00
2019-06-20T23:30:23.556Z,18.68
2019-06-20T23:32:54.664Z,18.71
2019-06-20T23:35:25.797Z,19.04
2019-06-20T23:37:56.864Z,18.64
2019-06-20T23:40:27.980Z,18.61
2019-06-20T23:42:59.038Z,18.89
2019-06-20T23:45:30.110Z,18.96
2019-06-20T23:48:01.330Z,19.40
2019-06-20T23:50:32.424Z,18.95
2019-06-20T23:53:09.147Z,18.81
2019-06-20T23:55:40.268Z,18.97
2019-06-20T23:58:12.250Z,18.85
